sensor_id;sensor_type;location;lat;lon;timestamp;temperature;humidity
7240;DHT22;3661;53.288;10.458;2022-07-17T00:01:57;12.20;99.90
7240;DHT22;3661;53.288;10.458;2022-07-17T00:04:29;12.20;99.90
7240;DHT22;3661;53.288;10.458;2022-07-17T00:07:01;12.20;99.90
7240;DHT22;3661;53.288;10.458;2022-07-17T00:09:33;12.30;99.90
7240;DHT22;3661;53.288;10.458;2022-07-17T00:12:05;12.30;99.90
7240;DHT22;3661;53.288;10.458;2022-07-17T00:14:38;12.30;99.90
7240;DHT22;3661;53.288;10.458;2022-07-17T00:17:12;12.30;99.90
7240;DHT22;3661;53.288;10.458;2022-07-17T00:19:47;12.40;99.90
7240;DHT22;3661;53.288;10.458;2022-07-17T00:22:22;12.40;99.90
7240;DHT22;3661;53.288;10.458;2022-07-17T00:24:55;12.40;99.90
7240;DHT22;3661;53.288;10.458;2022-07-17T00:27:30;12.40;99.90
7240;DHT22;3661;53.288;10.458;2022-07-17T00:30:03;12.40;99.90
7240;DHT22;3661;53.288;10.458;2022-07-17T00:32:37;12.40;99.90
7240;DHT22;3661;53.288;10.458;2022-07-17T00:35:10;12.40;99.90
7240;DHT22;3661;53.288;10.458;2022-07-17T00:37:47;12.40;99.90
7240;DHT22;3661;53.288;10.458;2022-07-17T00:40:21;12.40;99.90
7240;DHT22;3661;53.288;10.458;2022-07-17T00:42:57;12.40;99.90
7240;DHT22;3661;53.288;10.458;2022-07-17T00:45:30;12.40;99.90
7240;DHT22;3661;53.288;10.458;2022-07-17T00:48:05;12.40;99.90
7240;DHT22;3661;53.288;10.458;2022-07-17T00:50:41;12.30;99.90
7240;DHT22;3661;53.288;10.458;2022-07-17T00:53:14;12.40;99.90
7240;DHT22;3661;53.288;10.458;2022-07-17T00:55:47;12.30;99.90
7240;DHT22;3661;53.288;10.458;2022-07-17T00:58:22;12.40;99.90
7240;DHT22;3661;53.288;10.458;2022-07-17T01:00:56;12.30;99.90
7240;DHT22;3661;53.288;10.458;2022-07-17T01:03:30;12.30;99.90
7240;DHT22;3661;53.288;10.458;2022-07-17T01:06:05;12.30;99.90
7240;DHT22;3661;53.288;10.458;2022-07-17T01:08:38;12.30;99.90
7240;DHT22;3661;53.288;10.458;2022-07-17T01:11:14;12.20;99.90
7240;DHT22;3661;53.288;10.458;2022-07-17T01:13:47;12.20;99.90
7240;DHT22;3661;53.288;10.458;2022-07-17T01:16:22;12.20;99.90
7240;DHT22;3661;53.288;10.458;2022-07-17T01:18:57;12.20;99.90
7240;DHT22;3661;53.288;10.458;2022-07-17T01:21:39;12.20;99.90
7240;DHT22;3661;53.288;10.458;2022-07-17T01:24:13;12.10;99.90
7240;DHT22;3661;53.288;10.458;2022-07-17T01:26:48;12.10;99.90
7240;DHT22;3661;53.288;10.458;2022-07-17T01:29:20;12.10;99.90
7240;DHT22;3661;53.288;10.458;2022-07-17T01:31:53;12.00;99.90
7240;DHT22;3661;53.288;10.458;2022-07-17T01:34:26;12.00;99.90
7240;DHT22;3661;53.288;10.458;2022-07-17T01:37:02;11.90;99.90
7240;DHT22;3661;53.288;10.458;2022-07-17T01:39:35;11.90;99.90
7240;DHT22;3661;53.288;10.458;2022-07-17T01:42:27;11.90;99.90
7240;DHT22;3661;53.288;10.458;2022-07-17T01:45:02;11.90;99.90
7240;DHT22;3661;53.288;10.458;2022-07-17T01:47:35;11.80;99.90
7240;DHT22;3661;53.288;10.458;2022-07-17T01:50:09;11.80;99.90
7240;DHT22;3661;53.288;10.458;2022-07-17T01:52:44;11.70;99.90
7240;DHT22;3661;53.288;10.458;2022-07-17T01:55:16;11.70;99.90
7240;DHT22;3661;53.288;10.458;2022-07-17T01:57:50;11.60;99.90
7240;DHT22;3661;53.288;10.458;2022-07-17T02:00:24;11.60;99.90
7240;DHT22;3661;53.288;10.458;2022-07-17T02:02:56;11.60;99.90
7240;DHT22;3661;53.288;10.458;2022-07-17T02:05:29;11.50;99.90
7240;DHT22;3661;53.288;10.458;2022-07-17T02:08:04;11.50;99.90
7240;DHT22;3661;53.288;10.458;2022-07-17T02:10:37;11.50;99.90
7240;DHT22;3661;53.288;10.458;2022-07-17T02:13:10;11.40;99.90
7240;DHT22;3661;53.288;10.458;2022-07-17T02:15:44;11.40;99.90
7240;DHT22;3661;53.288;10.458;2022-07-17T02:18:16;11.30;99.90
7240;DHT22;3661;53.288;10.458;2022-07-17T02:20:49;11.30;99.90
7240;DHT22;3661;53.288;10.458;2022-07-17T02:23:22;11.20;99.90
7240;DHT22;3661;53.288;10.458;2022-07-17T02:25:58;11.20;99.90
7240;DHT22;3661;53.288;10.458;2022-07-17T02:28:31;11.10;99.90
7240;DHT22;3661;53.288;10.458;2022-07-17T02:31:03;11.10;99.90
7240;DHT22;3661;53.288;10.458;2022-07-17T02:33:36;11.00;99.90
7240;DHT22;3661;53.288;10.458;2022-07-17T02:36:08;11.00;99.90
7240;DHT22;3661;53.288;10.458;2022-07-17T02:38:42;10.90;99.90
7240;DHT22;3661;53.288;10.458;2022-07-17T02:41:14;10.90;99.90
7240;DHT22;3661;53.288;10.458;2022-07-17T02:43:48;10.80;99.90
7240;DHT22;3661;53.288;10.458;2022-07-17T02:46:22;10.80;99.90
7240;DHT22;3661;53.288;10.458;2022-07-17T02:48:54;10.70;99.90
7240;DHT22;3661;53.288;10.458;2022-07-17T02:51:29;10.60;99.90
7240;DHT22;3661;53.288;10.458;2022-07-17T02:54:05;10.60;99.90
7240;DHT22;3661;53.288;10.458;2022-07-17T02:56:37;10.60;99.90
7240;DHT22;3661;53.288;10.458;2022-07-17T02:59:09;10.50;99.90
7240;DHT22;3661;53.288;10.458;2022-07-17T03:01:43;10.50;99.90
7240;DHT22;3661;53.288;10.458;2022-07-17T03:04:18;10.40;99.90
7240;DHT22;3661;53.288;10.458;2022-07-17T03:06:50;10.40;99.90
7240;DHT22;3661;53.288;10.458;2022-07-17T03:09:24;10.30;99.90
7240;DHT22;3661;53.288;10.458;2022-07-17T03:11:56;10.30;99.90
7240;DHT22;3661;53.288;10.458;2022-07-17T03:14:29;10.30;99.90
7240;DHT22;3661;53.288;10.458;2022-07-17T03:17:01;10.20;99.90
7240;DHT22;3661;53.288;10.458;2022-07-17T03:19:37;10.20;99.90
7240;DHT22;3661;53.288;10.458;2022-07-17T03:22:09;10.10;99.90
7240;DHT22;3661;53.288;10.458;2022-07-17T03:24:43;10.10;99.90
7240;DHT22;3661;53.288;10.458;2022-07-17T03:27:16;10.00;99.90
7240;DHT22;3661;53.288;10.458;2022-07-17T03:29:49;10.00;99.90
7240;DHT22;3661;53.288;10.458;2022-07-17T03:32:21;9.90;99.90
7240;DHT22;3661;53.288;10.458;2022-07-17T03:34:54;9.90;99.90
7240;DHT22;3661;53.288;10.458;2022-07-17T03:37:29;9.90;99.90
7240;DHT22;3661;53.288;10.458;2022-07-17T03:40:04;9.90;99.90
7240;DHT22;3661;53.288;10.458;2022-07-17T03:42:37;9.90;99.90
7240;DHT22;3661;53.288;10.458;2022-07-17T03:45:11;10.00;99.90
7240;DHT22;3661;53.288;10.458;2022-07-17T03:47:47;10.00;99.90
7240;DHT22;3661;53.288;10.458;2022-07-17T03:50:20;10.10;99.90
7240;DHT22;3661;53.288;10.458;2022-07-17T03:52:53;10.10;99.90
7240;DHT22;3661;53.288;10.458;2022-07-17T03:55:27;10.20;99.90
7240;DHT22;3661;53.288;10.458;2022-07-17T03:58:00;10.30;99.90
7240;DHT22;3661;53.288;10.458;2022-07-17T04:00:33;10.30;99.90
7240;DHT22;3661;53.288;10.458;2022-07-17T04:03:05;10.40;99.90
7240;DHT22;3661;53.288;10.458;2022-07-17T04:05:38;10.50;99.90
7240;DHT22;3661;53.288;10.458;2022-07-17T04:08:10;10.50;99.90
7240;DHT22;3661;53.288;10.458;2022-07-17T04:10:45;10.50;99.90
7240;DHT22;3661;53.288;10.458;2022-07-17T04:13:17;10.60;99.90
7240;DHT22;3661;53.288;10.458;2022-07-17T04:15:50;10.60;99.90
7240;DHT22;3661;53.288;10.458;2022-07-17T04:18:28;10.70;99.90
7240;DHT22;3661;53.288;10.458;2022-07-17T04:21:03;10.70;99.90
7240;DHT22;3661;53.288;10.458;2022-07-17T04:23:36;10.80;99.90
7240;DHT22;3661;53.288;10.458;2022-07-17T04:26:11;10.80;99.90
7240;DHT22;3661;53.288;10.458;2022-07-17T04:28:43;10.90;99.90
7240;DHT22;3661;53.288;10.458;2022-07-17T04:31:17;10.90;99.90
7240;DHT22;3661;53.288;10.458;2022-07-17T04:33:50;11.00;99.90
7240;DHT22;3661;53.288;10.458;2022-07-17T04:36:24;11.00;99.90
7240;DHT22;3661;53.288;10.458;2022-07-17T04:38:56;11.10;99.90
7240;DHT22;3661;53.288;10.458;2022-07-17T04:41:30;11.20;99.90
7240;DHT22;3661;53.288;10.458;2022-07-17T04:44:03;11.20;99.90
7240;DHT22;3661;53.288;10.458;2022-07-17T04:46:35;11.30;99.90
7240;DHT22;3661;53.288;10.458;2022-07-17T04:49:08;11.40;99.90
7240;DHT22;3661;53.288;10.458;2022-07-17T04:51:40;11.50;99.90
7240;DHT22;3661;53.288;10.458;2022-07-17T04:54:13;11.60;99.90
7240;DHT22;3661;53.288;10.458;2022-07-17T05:03:48;11.90;99.90
7240;DHT22;3661;53.288;10.458;2022-07-17T05:06:20;12.00;99.90
7240;DHT22;3661;53.288;10.458;2022-07-17T05:08:52;12.10;99.90
7240;DHT22;3661;53.288;10.458;2022-07-17T05:11:24;12.20;99.90
7240;DHT22;3661;53.288;10.458;2022-07-17T05:13:57;12.30;99.90
7240;DHT22;3661;53.288;10.458;2022-07-17T05:16:29;12.40;99.90
7240;DHT22;3661;53.288;10.458;2022-07-17T05:19:03;12.50;99.90
7240;DHT22;3661;53.288;10.458;2022-07-17T05:21:35;12.60;99.90
7240;DHT22;3661;53.288;10.458;2022-07-17T05:24:08;12.70;99.90
7240;DHT22;3661;53.288;10.458;2022-07-17T05:26:42;12.80;99.90
7240;DHT22;3661;53.288;10.458;2022-07-17T05:29:15;12.90;99.90
7240;DHT22;3661;53.288;10.458;2022-07-17T05:31:50;12.90;99.90
7240;DHT22;3661;53.288;10.458;2022-07-17T05:34:24;13.00;99.90
7240;DHT22;3661;53.288;10.458;2022-07-17T05:36:58;13.10;99.90
7240;DHT22;3661;53.288;10.458;2022-07-17T05:39:32;13.20;99.90
7240;DHT22;3661;53.288;10.458;2022-07-17T05:42:05;13.30;99.90
7240;DHT22;3661;53.288;10.458;2022-07-17T05:44:37;13.40;99.90
7240;DHT22;3661;53.288;10.458;2022-07-17T05:47:09;13.50;99.90
7240;DHT22;3661;53.288;10.458;2022-07-17T05:49:43;13.60;99.90
7240;DHT22;3661;53.288;10.458;2022-07-17T05:52:15;13.60;99.90
7240;DHT22;3661;53.288;10.458;2022-07-17T05:54:50;13.70;99.90
7240;DHT22;3661;53.288;10.458;2022-07-17T05:57:23;13.70;99.90
7240;DHT22;3661;53.288;10.458;2022-07-17T05:59:55;13.80;99.90
7240;DHT22;3661;53.288;10.458;2022-07-17T06:02:27;13.80;99.90
7240;DHT22;3661;53.288;10.458;2022-07-17T06:08:24;13.90;99.90
7240;DHT22;3661;53.288;10.458;2022-07-17T06:10:57;14.00;99.90
7240;DHT22;3661;53.288;10.458;2022-07-17T06:13:29;14.10;99.90
7240;DHT22;3661;53.288;10.458;2022-07-17T06:16:01;14.10;99.90
7240;DHT22;3661;53.288;10.458;2022-07-17T06:18:34;14.20;99.90
7240;DHT22;3661;53.288;10.458;2022-07-17T06:21:10;14.20;99.90
7240;DHT22;3661;53.288;10.458;2022-07-17T06:24:00;14.30;99.90
7240;DHT22;3661;53.288;10.458;2022-07-17T06:26:39;14.30;99.90
7240;DHT22;3661;53.288;10.458;2022-07-17T06:29:12;14.40;99.90
7240;DHT22;3661;53.288;10.458;2022-07-17T06:31:44;14.50;99.90
7240;DHT22;3661;53.288;10.458;2022-07-17T06:34:19;14.50;99.90
7240;DHT22;3661;53.288;10.458;2022-07-17T06:36:53;14.60;99.90
7240;DHT22;3661;53.288;10.458;2022-07-17T06:39:27;14.60;99.90
7240;DHT22;3661;53.288;10.458;2022-07-17T06:42:03;14.70;99.90
7240;DHT22;3661;53.288;10.458;2022-07-17T06:44:36;14.80;99.90
7240;DHT22;3661;53.288;10.458;2022-07-17T06:47:08;14.90;99.90
7240;DHT22;3661;53.288;10.458;2022-07-17T06:49:42;15.00;99.90
7240;DHT22;3661;53.288;10.458;2022-07-17T06:52:21;15.00;99.90
7240;DHT22;3661;53.288;10.458;2022-07-17T06:54:55;15.10;99.90
7240;DHT22;3661;53.288;10.458;2022-07-17T06:57:30;15.20;99.90
7240;DHT22;3661;53.288;10.458;2022-07-17T07:00:06;15.30;99.90
7240;DHT22;3661;53.288;10.458;2022-07-17T07:02:44;15.40;99.90
7240;DHT22;3661;53.288;10.458;2022-07-17T07:05:17;15.50;99.90
7240;DHT22;3661;53.288;10.458;2022-07-17T07:07:49;15.60;99.90
7240;DHT22;3661;53.288;10.458;2022-07-17T07:10:24;15.70;99.90
7240;DHT22;3661;53.288;10.458;2022-07-17T07:12:56;15.80;99.90
7240;DHT22;3661;53.288;10.458;2022-07-17T07:15:30;15.90;99.90
7240;DHT22;3661;53.288;10.458;2022-07-17T07:18:04;16.00;99.90
7240;DHT22;3661;53.288;10.458;2022-07-17T07:20:37;16.10;99.90
7240;DHT22;3661;53.288;10.458;2022-07-17T07:23:09;16.20;99.90
7240;DHT22;3661;53.288;10.458;2022-07-17T07:25:43;16.30;99.90
7240;DHT22;3661;53.288;10.458;2022-07-17T07:28:17;16.30;99.90
7240;DHT22;3661;53.288;10.458;2022-07-17T07:30:53;16.40;99.90
7240;DHT22;3661;53.288;10.458;2022-07-17T07:33:25;16.50;99.90
7240;DHT22;3661;53.288;10.458;2022-07-17T07:35:59;16.50;99.90
7240;DHT22;3661;53.288;10.458;2022-07-17T07:38:31;16.60;99.90
7240;DHT22;3661;53.288;10.458;2022-07-17T07:41:16;16.70;99.90
7240;DHT22;3661;53.288;10.458;2022-07-17T07:43:49;16.80;99.90
7240;DHT22;3661;53.288;10.458;2022-07-17T07:46:22;16.90;99.90
7240;DHT22;3661;53.288;10.458;2022-07-17T07:48:55;17.00;99.90
7240;DHT22;3661;53.288;10.458;2022-07-17T07:51:27;17.00;99.90
7240;DHT22;3661;53.288;10.458;2022-07-17T07:53:59;17.10;99.90
7240;DHT22;3661;53.288;10.458;2022-07-17T07:56:34;17.20;99.90
7240;DHT22;3661;53.288;10.458;2022-07-17T07:59:07;17.20;99.90
7240;DHT22;3661;53.288;10.458;2022-07-17T08:01:41;17.30;99.90
7240;DHT22;3661;53.288;10.458;2022-07-17T08:04:13;17.40;99.90
7240;DHT22;3661;53.288;10.458;2022-07-17T08:06:47;17.50;99.90
7240;DHT22;3661;53.288;10.458;2022-07-17T08:09:20;17.50;99.90
7240;DHT22;3661;53.288;10.458;2022-07-17T08:11:59;17.60;99.90
7240;DHT22;3661;53.288;10.458;2022-07-17T08:14:31;17.70;99.90
7240;DHT22;3661;53.288;10.458;2022-07-17T08:17:03;17.80;99.90
7240;DHT22;3661;53.288;10.458;2022-07-17T08:19:36;17.90;99.90
7240;DHT22;3661;53.288;10.458;2022-07-17T08:22:08;18.00;99.90
7240;DHT22;3661;53.288;10.458;2022-07-17T08:24:40;18.20;99.90
7240;DHT22;3661;53.288;10.458;2022-07-17T08:27:14;18.30;99.90
7240;DHT22;3661;53.288;10.458;2022-07-17T08:29:48;18.50;99.90
7240;DHT22;3661;53.288;10.458;2022-07-17T08:32:20;18.60;99.90
7240;DHT22;3661;53.288;10.458;2022-07-17T08:34:52;18.80;99.90
7240;DHT22;3661;53.288;10.458;2022-07-17T08:37:25;18.90;99.90
7240;DHT22;3661;53.288;10.458;2022-07-17T08:39:59;19.00;99.90
7240;DHT22;3661;53.288;10.458;2022-07-17T08:42:33;19.20;99.90
7240;DHT22;3661;53.288;10.458;2022-07-17T08:45:13;19.40;99.90
7240;DHT22;3661;53.288;10.458;2022-07-17T08:47:46;19.50;99.90
7240;DHT22;3661;53.288;10.458;2022-07-17T08:50:22;19.70;99.90
7240;DHT22;3661;53.288;10.458;2022-07-17T08:52:55;19.80;99.90
7240;DHT22;3661;53.288;10.458;2022-07-17T08:55:27;20.00;99.90
7240;DHT22;3661;53.288;10.458;2022-07-17T08:58:02;20.10;99.30
7240;DHT22;3661;53.288;10.458;2022-07-17T09:00:35;20.20;99.60
7240;DHT22;3661;53.288;10.458;2022-07-17T09:03:08;20.40;99.90
7240;DHT22;3661;53.288;10.458;2022-07-17T09:05:41;20.50;99.90
7240;DHT22;3661;53.288;10.458;2022-07-17T09:08:19;20.60;98.90
7240;DHT22;3661;53.288;10.458;2022-07-17T09:10:53;20.70;98.70
7240;DHT22;3661;53.288;10.458;2022-07-17T09:13:28;20.80;98.40
7240;DHT22;3661;53.288;10.458;2022-07-17T09:16:08;20.80;98.10
7240;DHT22;3661;53.288;10.458;2022-07-17T09:18:55;20.90;98.00
7240;DHT22;3661;53.288;10.458;2022-07-17T09:21:32;20.90;98.50
7240;DHT22;3661;53.288;10.458;2022-07-17T09:24:06;21.00;99.00
7240;DHT22;3661;53.288;10.458;2022-07-17T09:26:45;21.10;97.80
7240;DHT22;3661;53.288;10.458;2022-07-17T09:29:19;21.20;97.60
7240;DHT22;3661;53.288;10.458;2022-07-17T09:31:52;21.30;97.10
7240;DHT22;3661;53.288;10.458;2022-07-17T09:34:24;21.40;97.10
7240;DHT22;3661;53.288;10.458;2022-07-17T09:37:03;21.40;97.20
7240;DHT22;3661;53.288;10.458;2022-07-17T09:39:39;21.50;96.70
7240;DHT22;3661;53.288;10.458;2022-07-17T09:42:22;21.50;97.00
7240;DHT22;3661;53.288;10.458;2022-07-17T09:45:06;21.60;97.10
7240;DHT22;3661;53.288;10.458;2022-07-17T09:47:39;21.70;97.40
7240;DHT22;3661;53.288;10.458;2022-07-17T09:50:16;21.80;96.00
7240;DHT22;3661;53.288;10.458;2022-07-17T09:52:52;21.90;97.20
7240;DHT22;3661;53.288;10.458;2022-07-17T09:55:29;22.00;95.70
7240;DHT22;3661;53.288;10.458;2022-07-17T09:58:03;22.10;96.50
7240;DHT22;3661;53.288;10.458;2022-07-17T10:00:41;22.20;96.10
7240;DHT22;3661;53.288;10.458;2022-07-17T10:03:18;22.40;96.90
7240;DHT22;3661;53.288;10.458;2022-07-17T10:05:50;22.60;96.00
7240;DHT22;3661;53.288;10.458;2022-07-17T10:08:22;22.80;95.70
7240;DHT22;3661;53.288;10.458;2022-07-17T10:10:55;22.90;95.40
7240;DHT22;3661;53.288;10.458;2022-07-17T10:13:28;23.20;95.90
7240;DHT22;3661;53.288;10.458;2022-07-17T10:16:05;23.40;95.70
7240;DHT22;3661;53.288;10.458;2022-07-17T10:18:39;23.50;95.40
7240;DHT22;3661;53.288;10.458;2022-07-17T10:21:14;23.70;95.10
7240;DHT22;3661;53.288;10.458;2022-07-17T10:24:04;23.90;95.60
7240;DHT22;3661;53.288;10.458;2022-07-17T10:26:43;24.00;95.60
7240;DHT22;3661;53.288;10.458;2022-07-17T10:29:33;24.30;95.00
7240;DHT22;3661;53.288;10.458;2022-07-17T10:32:16;24.40;93.70
7240;DHT22;3661;53.288;10.458;2022-07-17T10:34:53;24.60;94.10
7240;DHT22;3661;53.288;10.458;2022-07-17T10:37:27;24.70;92.60
7240;DHT22;3661;53.288;10.458;2022-07-17T10:40:03;24.80;92.60
7240;DHT22;3661;53.288;10.458;2022-07-17T10:42:41;25.00;93.00
7240;DHT22;3661;53.288;10.458;2022-07-17T10:45:16;25.10;93.20
7240;DHT22;3661;53.288;10.458;2022-07-17T10:48:00;25.20;91.50
7240;DHT22;3661;53.288;10.458;2022-07-17T10:50:35;25.50;93.90
7240;DHT22;3661;53.288;10.458;2022-07-17T10:53:12;25.60;91.10
7240;DHT22;3661;53.288;10.458;2022-07-17T10:55:47;25.80;92.30
7240;DHT22;3661;53.288;10.458;2022-07-17T10:58:22;26.00;94.30
7240;DHT22;3661;53.288;10.458;2022-07-17T11:00:59;26.50;95.10
7240;DHT22;3661;53.288;10.458;2022-07-17T11:03:37;26.70;91.20
7240;DHT22;3661;53.288;10.458;2022-07-17T11:06:12;26.90;93.10
7240;DHT22;3661;53.288;10.458;2022-07-17T11:08:50;27.10;90.00
7240;DHT22;3661;53.288;10.458;2022-07-17T11:11:35;27.30;92.10
7240;DHT22;3661;53.288;10.458;2022-07-17T11:14:12;27.60;92.50
7240;DHT22;3661;53.288;10.458;2022-07-17T11:16:45;27.70;87.30
7240;DHT22;3661;53.288;10.458;2022-07-17T11:19:25;27.70;87.50
7240;DHT22;3661;53.288;10.458;2022-07-17T11:21:58;27.70;85.30
7240;DHT22;3661;53.288;10.458;2022-07-17T11:24:37;27.80;89.00
7240;DHT22;3661;53.288;10.458;2022-07-17T11:27:11;28.00;86.60
7240;DHT22;3661;53.288;10.458;2022-07-17T11:29:44;28.10;86.90
7240;DHT22;3661;53.288;10.458;2022-07-17T11:32:16;28.10;87.10
7240;DHT22;3661;53.288;10.458;2022-07-17T11:34:50;28.20;84.20
7240;DHT22;3661;53.288;10.458;2022-07-17T11:37:27;28.40;89.50
7240;DHT22;3661;53.288;10.458;2022-07-17T11:40:00;28.60;90.00
7240;DHT22;3661;53.288;10.458;2022-07-17T11:42:32;28.90;89.70
7240;DHT22;3661;53.288;10.458;2022-07-17T11:45:05;29.10;88.40
7240;DHT22;3661;53.288;10.458;2022-07-17T11:47:41;29.40;88.70
7240;DHT22;3661;53.288;10.458;2022-07-17T11:50:15;29.60;87.80
7240;DHT22;3661;53.288;10.458;2022-07-17T11:52:49;29.70;84.40
7240;DHT22;3661;53.288;10.458;2022-07-17T11:55:23;30.00;87.80
7240;DHT22;3661;53.288;10.458;2022-07-17T11:58:12;30.20;84.80
7240;DHT22;3661;53.288;10.458;2022-07-17T12:06:07;30.20;82.40
7240;DHT22;3661;53.288;10.458;2022-07-17T12:08:50;30.30;82.90
7240;DHT22;3661;53.288;10.458;2022-07-17T12:11:23;30.40;81.30
7240;DHT22;3661;53.288;10.458;2022-07-17T12:14:03;30.50;79.50
7240;DHT22;3661;53.288;10.458;2022-07-17T12:16:45;30.50;79.60
7240;DHT22;3661;53.288;10.458;2022-07-17T12:19:24;30.50;79.50
7240;DHT22;3661;53.288;10.458;2022-07-17T12:27:21;31.00;80.60
7240;DHT22;3661;53.288;10.458;2022-07-17T12:29:55;30.90;78.50
7240;DHT22;3661;53.288;10.458;2022-07-17T12:32:28;31.10;82.30
7240;DHT22;3661;53.288;10.458;2022-07-17T12:35:11;31.20;79.60
7240;DHT22;3661;53.288;10.458;2022-07-17T12:38:11;31.40;80.70
7240;DHT22;3661;53.288;10.458;2022-07-17T12:40:46;31.60;79.40
7240;DHT22;3661;53.288;10.458;2022-07-17T12:43:20;31.70;77.00
7240;DHT22;3661;53.288;10.458;2022-07-17T12:45:53;31.50;74.70
7240;DHT22;3661;53.288;10.458;2022-07-17T12:48:25;31.30;74.40
7240;DHT22;3661;53.288;10.458;2022-07-17T12:54:04;31.40;78.90
7240;DHT22;3661;53.288;10.458;2022-07-17T12:56:38;31.60;76.20
7240;DHT22;3661;53.288;10.458;2022-07-17T12:59:12;31.70;75.10
7240;DHT22;3661;53.288;10.458;2022-07-17T13:01:48;31.50;72.90
7240;DHT22;3661;53.288;10.458;2022-07-17T13:04:20;31.50;76.50
7240;DHT22;3661;53.288;10.458;2022-07-17T13:06:52;31.50;74.10
7240;DHT22;3661;53.288;10.458;2022-07-17T13:09:30;31.40;73.10
7240;DHT22;3661;53.288;10.458;2022-07-17T13:12:03;31.40;75.70
7240;DHT22;3661;53.288;10.458;2022-07-17T13:14:44;31.60;75.80
7240;DHT22;3661;53.288;10.458;2022-07-17T13:17:17;31.70;76.00
7240;DHT22;3661;53.288;10.458;2022-07-17T13:19:51;31.70;73.00
7240;DHT22;3661;53.288;10.458;2022-07-17T13:22:27;31.50;72.50
7240;DHT22;3661;53.288;10.458;2022-07-17T13:25:00;31.50;73.30
7240;DHT22;3661;53.288;10.458;2022-07-17T13:27:34;31.40;72.60
7240;DHT22;3661;53.288;10.458;2022-07-17T13:35:27;31.40;75.50
7240;DHT22;3661;53.288;10.458;2022-07-17T13:37:59;31.40;72.90
7240;DHT22;3661;53.288;10.458;2022-07-17T13:44:01;31.60;74.30
7240;DHT22;3661;53.288;10.458;2022-07-17T13:46:35;31.80;74.30
7240;DHT22;3661;53.288;10.458;2022-07-17T13:51:50;31.90;70.80
7240;DHT22;3661;53.288;10.458;2022-07-17T13:54:22;31.70;71.60
7240;DHT22;3661;53.288;10.458;2022-07-17T13:56:54;31.60;73.90
7240;DHT22;3661;53.288;10.458;2022-07-17T13:59:27;31.50;71.70
7240;DHT22;3661;53.288;10.458;2022-07-17T14:02:00;31.40;71.80
7240;DHT22;3661;53.288;10.458;2022-07-17T14:04:32;31.20;73.20
7240;DHT22;3661;53.288;10.458;2022-07-17T14:07:05;31.20;73.00
7240;DHT22;3661;53.288;10.458;2022-07-17T14:09:38;31.20;72.80
7240;DHT22;3661;53.288;10.458;2022-07-17T14:12:12;31.20;72.60
7240;DHT22;3661;53.288;10.458;2022-07-17T14:14:44;31.10;72.50
7240;DHT22;3661;53.288;10.458;2022-07-17T14:17:17;31.10;72.00
7240;DHT22;3661;53.288;10.458;2022-07-17T14:19:50;31.00;72.50
7240;DHT22;3661;53.288;10.458;2022-07-17T14:22:25;30.90;73.30
7240;DHT22;3661;53.288;10.458;2022-07-17T14:24:57;31.00;73.60
7240;DHT22;3661;53.288;10.458;2022-07-17T14:27:29;31.00;72.40
7240;DHT22;3661;53.288;10.458;2022-07-17T14:30:01;31.00;73.50
7240;DHT22;3661;53.288;10.458;2022-07-17T14:32:34;31.10;73.20
7240;DHT22;3661;53.288;10.458;2022-07-17T14:35:07;31.00;73.00
7240;DHT22;3661;53.288;10.458;2022-07-17T14:37:41;31.10;74.90
7240;DHT22;3661;53.288;10.458;2022-07-17T14:40:14;31.20;73.40
7240;DHT22;3661;53.288;10.458;2022-07-17T14:42:47;31.20;73.10
7240;DHT22;3661;53.288;10.458;2022-07-17T14:45:19;31.20;72.80
7240;DHT22;3661;53.288;10.458;2022-07-17T14:47:52;31.20;74.10
7240;DHT22;3661;53.288;10.458;2022-07-17T14:50:24;31.30;73.50
7240;DHT22;3661;53.288;10.458;2022-07-17T14:52:57;31.40;73.40
7240;DHT22;3661;53.288;10.458;2022-07-17T14:55:30;31.50;74.00
7240;DHT22;3661;53.288;10.458;2022-07-17T14:58:04;31.60;72.90
7240;DHT22;3661;53.288;10.458;2022-07-17T15:00:36;31.60;73.40
7240;DHT22;3661;53.288;10.458;2022-07-17T15:03:11;31.70;72.70
7240;DHT22;3661;53.288;10.458;2022-07-17T15:05:44;31.70;72.50
7240;DHT22;3661;53.288;10.458;2022-07-17T15:08:17;31.60;72.20
7240;DHT22;3661;53.288;10.458;2022-07-17T15:10:50;31.50;72.30
7240;DHT22;3661;53.288;10.458;2022-07-17T15:13:22;31.40;72.10
7240;DHT22;3661;53.288;10.458;2022-07-17T15:16:02;31.30;71.60
7240;DHT22;3661;53.288;10.458;2022-07-17T15:18:34;31.00;71.30
7240;DHT22;3661;53.288;10.458;2022-07-17T15:21:07;30.90;72.10
7240;DHT22;3661;53.288;10.458;2022-07-17T15:23:41;30.90;71.90
7240;DHT22;3661;53.288;10.458;2022-07-17T15:26:14;30.90;71.90
7240;DHT22;3661;53.288;10.458;2022-07-17T15:28:46;30.80;71.70
7240;DHT22;3661;53.288;10.458;2022-07-17T15:31:18;30.80;72.10
7240;DHT22;3661;53.288;10.458;2022-07-17T15:33:50;30.60;72.10
7240;DHT22;3661;53.288;10.458;2022-07-17T15:36:22;30.60;72.30
7240;DHT22;3661;53.288;10.458;2022-07-17T15:39:00;30.50;72.00
7240;DHT22;3661;53.288;10.458;2022-07-17T15:41:34;30.30;71.50
7240;DHT22;3661;53.288;10.458;2022-07-17T15:44:06;30.10;71.70
7240;DHT22;3661;53.288;10.458;2022-07-17T15:46:39;30.00;72.00
7240;DHT22;3661;53.288;10.458;2022-07-17T15:49:12;29.90;72.30
7240;DHT22;3661;53.288;10.458;2022-07-17T15:51:44;29.80;72.60
7240;DHT22;3661;53.288;10.458;2022-07-17T15:54:18;29.80;72.40
7240;DHT22;3661;53.288;10.458;2022-07-17T15:56:50;29.80;72.60
7240;DHT22;3661;53.288;10.458;2022-07-17T15:59:22;29.80;73.00
7240;DHT22;3661;53.288;10.458;2022-07-17T16:01:54;29.80;72.60
7240;DHT22;3661;53.288;10.458;2022-07-17T16:04:27;29.80;72.60
7240;DHT22;3661;53.288;10.458;2022-07-17T16:06:59;29.80;72.70
7240;DHT22;3661;53.288;10.458;2022-07-17T16:09:41;29.80;72.40
7240;DHT22;3661;53.288;10.458;2022-07-17T16:12:34;29.70;72.50
7240;DHT22;3661;53.288;10.458;2022-07-17T16:15:29;29.50;72.00
7240;DHT22;3661;53.288;10.458;2022-07-17T16:18:19;29.40;72.40
7240;DHT22;3661;53.288;10.458;2022-07-17T16:20:59;29.30;72.20
7240;DHT22;3661;53.288;10.458;2022-07-17T16:24:03;29.10;72.30
7240;DHT22;3661;53.288;10.458;2022-07-17T16:26:41;29.00;72.80
7240;DHT22;3661;53.288;10.458;2022-07-17T16:29:28;28.80;73.00
7240;DHT22;3661;53.288;10.458;2022-07-17T16:32:13;28.70;73.40
7240;DHT22;3661;53.288;10.458;2022-07-17T16:35:12;28.50;73.60
7240;DHT22;3661;53.288;10.458;2022-07-17T16:37:47;28.30;74.10
7240;DHT22;3661;53.288;10.458;2022-07-17T16:40:36;28.00;74.40
7240;DHT22;3661;53.288;10.458;2022-07-17T16:43:11;27.80;74.60
7240;DHT22;3661;53.288;10.458;2022-07-17T16:45:45;27.60;75.00
7240;DHT22;3661;53.288;10.458;2022-07-17T16:48:20;27.40;75.40
7240;DHT22;3661;53.288;10.458;2022-07-17T16:51:07;27.20;75.70
7240;DHT22;3661;53.288;10.458;2022-07-17T16:53:40;26.90;76.10
7240;DHT22;3661;53.288;10.458;2022-07-17T16:56:12;26.70;76.50
7240;DHT22;3661;53.288;10.458;2022-07-17T16:58:49;26.50;76.80
7240;DHT22;3661;53.288;10.458;2022-07-17T17:01:23;26.40;77.40
7240;DHT22;3661;53.288;10.458;2022-07-17T17:12:04;25.60;78.50
7240;DHT22;3661;53.288;10.458;2022-07-17T17:15:08;25.50;79.00
7240;DHT22;3661;53.288;10.458;2022-07-17T17:17:44;25.30;79.60
7240;DHT22;3661;53.288;10.458;2022-07-17T17:20:24;25.20;79.80